Time;durP1;ratioP1;P1;durP2;ratioP2;P2;SDS_P1;SDS_P2;PMS_P1;PMS_P2;Temp;Humidity;BMP_temperature;BMP_pressure;BME280_temperature;BME280_humidity;BME280_pressure;Samples;Min_cycle;Max_cycle;Signal;HPM_P1;HPM_P2
2020/12/31 00:02:19;;;;;;;15.38;5.95;;;;;;;2.50;59.16;98417.84;5005288;28;20046;-82
2020/12/31 00:04:47;;;;;;;19.23;6.85;;;;;;;2.62;59.21;98420.47;5025479;28;20033;-82
2020/12/31 00:07:14;;;;;;;12.38;5.65;;;;;;;3.01;57.55;98418.00;5035893;28;20045;-83
2020/12/31 00:09:41;;;;;;;13.40;5.80;;;;;;;2.97;57.81;98421.41;5013105;28;20061;-84
2020/12/31 00:12:10;;;;;;;14.95;6.25;;;;;;;2.91;57.94;98424.00;5008590;28;20049;-82
2020/12/31 00:14:37;;;;;;;14.40;5.50;;;;;;;2.77;58.37;98422.25;5009806;28;20052;-83
2020/12/31 00:17:07;;;;;;;11.57;5.57;;;;;;;3.04;57.59;98423.16;5032155;28;20104;-82
2020/12/31 00:19:36;;;;;;;12.07;4.65;;;;;;;3.24;56.83;98415.47;5007656;28;20080;-82
2020/12/31 00:22:04;;;;;;;10.30;5.35;;;;;;;3.13;56.86;98421.44;4985491;28;20089;-81
2020/12/31 00:24:31;;;;;;;13.80;5.22;;;;;;;2.96;57.25;98416.28;5007753;28;20088;-83
2020/12/31 00:27:03;;;;;;;12.65;4.88;;;;;;;3.36;56.35;98414.59;4993430;28;20052;-82
2020/12/31 00:29:32;;;;;;;13.27;5.07;;;;;;;2.95;57.81;98407.66;4998422;28;20056;-85
2020/12/31 00:32:03;;;;;;;11.60;4.20;;;;;;;3.09;57.69;98402.53;5002667;28;20047;-81
2020/12/31 00:34:30;;;;;;;14.07;5.38;;;;;;;2.99;58.47;98405.94;4996129;28;20052;-84
2020/12/31 00:36:57;;;;;;;11.82;4.40;;;;;;;3.07;58.91;98396.50;5011783;28;20052;-81
2020/12/31 00:39:24;;;;;;;9.45;4.75;;;;;;;2.95;59.32;98402.50;5006479;28;20392;-81
2020/12/31 00:41:50;;;;;;;11.18;6.00;;;;;;;3.11;58.74;98393.09;5030778;28;20048;-83
2020/12/31 00:44:18;;;;;;;12.25;3.88;;;;;;;2.93;59.33;98390.44;5023434;28;20103;-83
2020/12/31 00:46:44;;;;;;;13.10;4.20;;;;;;;2.71;60.03;98401.59;5012935;28;20056;-82
2020/12/31 00:49:13;;;;;;;14.10;5.38;;;;;;;3.38;58.91;98397.41;5004989;28;20120;-83
2020/12/31 00:51:39;;;;;;;10.27;4.70;;;;;;;3.11;59.14;98394.81;5022551;28;20489;-82
2020/12/31 00:54:07;;;;;;;11.70;4.00;;;;;;;2.88;60.39;98390.44;4999211;28;20048;-84
2020/12/31 00:56:35;;;;;;;7.70;4.30;;;;;;;3.38;59.21;98392.22;5008531;28;20056;-83
2020/12/31 00:59:02;;;;;;;16.55;5.28;;;;;;;2.97;60.28;98395.63;5021708;28;20049;-83
2020/12/31 01:01:29;;;;;;;9.13;4.85;;;;;;;2.61;61.25;98398.97;5020458;28;20141;-84
2020/12/31 01:03:56;;;;;;;14.30;6.15;;;;;;;3.30;59.67;98396.53;5023889;28;20057;-82
2020/12/31 01:06:26;;;;;;;10.15;5.65;;;;;;;3.24;60.32;98393.94;5023192;28;20547;-82
2020/12/31 01:08:53;;;;;;;15.32;6.82;;;;;;;3.00;61.08;98397.34;5010400;28;20053;-83
2020/12/31 01:11:19;;;;;;;13.70;7.07;;;;;;;3.10;60.86;98390.50;5021876;28;20093;-83
2020/12/31 01:13:47;;;;;;;14.43;6.20;;;;;;;3.08;61.92;98395.66;5001803;28;20125;-84
2020/12/31 01:16:17;;;;;;;17.55;7.07;;;;;;;2.84;62.30;98404.19;5005747;28;20156;-83
2020/12/31 01:18:44;;;;;;;15.05;6.88;;;;;;;3.09;62.16;98407.69;5024282;28;20052;-83
2020/12/31 01:21:12;;;;;;;19.75;6.53;;;;;;;3.30;61.95;98412.03;5019057;28;20049;-83
2020/12/31 01:23:40;;;;;;;18.17;6.03;;;;;;;3.26;61.63;98407.72;5022607;28;20072;-82
2020/12/31 01:26:12;;;;;;;21.20;7.65;;;;;;;3.27;61.52;98405.13;5005642;28;20041;-84
2020/12/31 01:28:39;;;;;;;21.23;7.57;;;;;;;2.86;62.71;98405.06;5003245;28;20049;-85
2020/12/31 01:31:09;;;;;;;12.63;6.20;;;;;;;3.21;62.64;98406.84;5019373;28;20251;-85
2020/12/31 01:33:37;;;;;;;16.45;6.10;;;;;;;2.96;62.89;98403.38;5004443;28;20049;-85
2020/12/31 01:36:08;;;;;;;15.07;6.10;;;;;;;3.14;62.14;98403.41;5019403;28;20084;-82
2020/12/31 01:38:34;;;;;;;14.02;5.72;;;;;;;3.12;62.84;98412.84;5019617;28;20041;-83
2020/12/31 01:41:09;;;;;;;19.98;5.15;;;;;;;3.34;62.28;98406.88;5017399;28;20497;-82
2020/12/31 01:43:36;;;;;;;15.07;5.55;;;;;;;3.36;62.05;98412.00;5014557;28;20120;-83
2020/12/31 01:46:02;;;;;;;13.43;5.78;;;;;;;3.26;62.76;98412.88;4999922;28;20111;-83
2020/12/31 01:48:30;;;;;;;19.75;5.70;;;;;;;3.35;61.86;98411.19;5020140;28;20111;-83
2020/12/31 01:50:57;;;;;;;16.08;6.40;;;;;;;3.31;62.34;98419.75;5020996;28;20504;-82
2020/12/31 01:53:24;;;;;;;17.73;6.78;;;;;;;3.61;61.35;98415.47;5020122;28;20127;-82
2020/12/31 01:55:50;;;;;;;14.73;6.05;;;;;;;3.23;62.07;98424.06;5019074;28;20144;-83
2020/12/31 01:58:18;;;;;;;16.38;7.13;;;;;;;3.01;63.29;98420.59;5019913;28;20053;-83
2020/12/31 02:00:47;;;;;;;17.08;7.03;;;;;;;3.26;62.34;98416.31;5023532;28;20058;-82
2020/12/31 02:03:14;;;;;;;12.20;6.63;;;;;;;2.95;63.56;98419.72;4998001;28;20500;-83
2020/12/31 02:05:41;;;;;;;18.98;7.18;;;;;;;3.55;61.95;98410.31;4982456;28;20382;-83
2020/12/31 02:08:08;;;;;;;13.68;6.90;;;;;;;3.52;61.75;98408.59;5014692;28;20061;-83
2020/12/31 02:10:35;;;;;;;16.83;5.85;;;;;;;3.39;62.22;98404.28;5021861;28;20175;-84
2020/12/31 02:13:05;;;;;;;15.30;6.28;;;;;;;3.25;63.11;98400.84;4990530;28;20173;-83
2020/12/31 02:15:32;;;;;;;15.65;5.80;;;;;;;3.36;63.15;98404.25;4984413;28;20054;-83
2020/12/31 02:17:59;;;;;;;12.20;5.90;;;;;;;3.35;63.28;98410.31;4989008;28;20160;-83
2020/12/31 02:20:26;;;;;;;11.60;5.05;;;;;;;3.17;64.01;98408.56;4989963;28;20056;-85
2020/12/31 02:22:53;;;;;;;11.23;5.68;;;;;;;3.22;64.09;98405.97;4990808;28;20124;-82
2020/12/31 02:25:23;;;;;;;17.50;4.95;;;;;;;3.67;62.60;98411.16;5003183;28;20384;-83
2020/12/31 02:27:50;;;;;;;13.13;5.18;;;;;;;3.27;63.57;98407.72;4980472;28;20041;-83
2020/12/31 02:30:18;;;;;;;12.50;5.47;;;;;;;3.42;63.64;98409.44;5004138;28;20042;-84
2020/12/31 02:32:45;;;;;;;11.02;5.45;;;;;;;3.61;63.08;98415.47;4990733;28;20049;-83
2020/12/31 02:35:12;;;;;;;11.52;4.55;;;;;;;3.63;63.17;98416.34;5039006;28;20554;-84
2020/12/31 02:37:39;;;;;;;13.48;4.65;;;;;;;3.43;63.97;98408.59;5027556;28;20053;-84
2020/12/31 02:40:08;;;;;;;9.50;4.18;;;;;;;3.18;63.94;98410.28;5013814;28;20091;-83
2020/12/31 02:42:35;;;;;;;10.55;4.05;;;;;;;3.29;64.72;98403.41;4978893;28;20581;-86
2020/12/31 02:45:02;;;;;;;16.50;4.55;;;;;;;3.42;64.16;98414.59;4989023;28;20058;-84
2020/12/31 02:47:35;;;;;;;11.00;4.13;;;;;;;3.55;63.81;98430.97;4992559;28;20050;-84
2020/12/31 02:50:02;;;;;;;11.27;4.03;;;;;;;3.87;62.62;98435.25;5002566;28;20052;-83
2020/12/31 02:52:29;;;;;;;8.70;4.13;;;;;;;3.75;62.79;98429.22;5001897;28;20046;-84
2020/12/31 02:54:56;;;;;;;9.10;3.95;;;;;;;4.00;62.39;98430.06;4988334;28;20112;-83
2020/12/31 02:57:23;;;;;;;8.75;3.65;;;;;;;4.02;61.52;98434.38;4987979;28;20041;-83
2020/12/31 02:59:50;;;;;;;8.90;3.50;;;;;;;4.23;61.42;98434.31;4997881;28;20062;-84
2020/12/31 03:02:16;;;;;;;7.95;3.85;;;;;;;4.75;60.34;98435.00;4983626;28;20067;-84
2020/12/31 03:04:44;;;;;;;8.88;4.70;;;;;;;4.97;59.13;98427.13;4985865;28;20038;-83
2020/12/31 03:07:10;;;;;;;10.50;4.75;;;;;;;4.55;60.07;98434.25;5003193;28;20053;-83
2020/12/31 03:09:37;;;;;;;11.85;4.82;;;;;;;4.33;60.89;98433.44;5001947;28;20050;-84
2020/12/31 03:12:04;;;;;;;10.98;4.72;;;;;;;4.38;61.02;98428.25;4987637;28;20077;-84
2020/12/31 03:14:30;;;;;;;15.30;6.30;;;;;;;4.01;62.32;98426.63;5002855;28;20045;-84
2020/12/31 03:16:57;;;;;;;12.23;5.55;;;;;;;4.29;61.33;98425.69;5024934;28;20126;-83
2020/12/31 03:19:23;;;;;;;13.15;6.13;;;;;;;3.66;62.32;98418.91;5023180;28;20057;-83
2020/12/31 03:21:50;;;;;;;17.15;6.53;;;;;;;3.40;63.70;98427.53;5026882;28;20051;-84
2020/12/31 03:24:17;;;;;;;16.42;7.13;;;;;;;3.60;62.98;98426.69;5023231;28;20053;-84
2020/12/31 03:26:43;;;;;;;17.02;6.30;;;;;;;3.77;62.49;98418.03;5019769;28;20058;-83
2020/12/31 03:29:10;;;;;;;14.73;5.80;;;;;;;3.80;61.78;98420.63;5000309;28;20053;-83
2020/12/31 03:31:36;;;;;;;12.35;6.03;;;;;;;4.07;61.15;98418.88;5002635;28;20077;-83
2020/12/31 03:34:03;;;;;;;13.48;5.97;;;;;;;3.63;62.26;98408.59;5009682;28;20065;-84
2020/12/31 03:36:29;;;;;;;13.45;5.63;;;;;;;2.98;65.70;98404.22;5020403;28;20120;-84
2020/12/31 03:38:57;;;;;;;8.88;4.82;;;;;;;3.59;65.25;98401.72;5025267;28;20053;-83
2020/12/31 03:41:24;;;;;;;13.23;6.05;;;;;;;3.20;66.02;98398.25;5019308;28;20049;-83
2020/12/31 03:43:50;;;;;;;16.00;5.85;;;;;;;3.26;66.53;98395.66;5004501;28;20049;-83
2020/12/31 03:46:17;;;;;;;14.88;6.22;;;;;;;3.13;67.20;98388.78;4993860;28;20361;-83
2020/12/31 03:48:44;;;;;;;16.25;6.40;;;;;;;2.96;67.63;98390.47;5005924;28;20053;-83
2020/12/31 03:51:10;;;;;;;15.80;6.32;;;;;;;3.61;66.49;98392.22;5024159;28;20499;-83
2020/12/31 03:53:37;;;;;;;13.63;6.80;;;;;;;4.02;64.82;98398.19;5026077;28;20107;-83
2020/12/31 03:56:03;;;;;;;14.32;7.75;;;;;;;3.79;64.60;98399.97;5003922;28;20077;-82
2020/12/31 03:58:30;;;;;;;15.38;6.20;;;;;;;3.82;65.38;98406.00;5005770;28;20228;-85
2020/12/31 04:00:57;;;;;;;14.25;6.18;;;;;;;4.04;64.19;98409.38;5018773;28;20049;-84
2020/12/31 04:03:24;;;;;;;11.50;6.57;;;;;;;3.93;64.39;98406.81;5019275;28;20826;-83
2020/12/31 04:05:50;;;;;;;13.13;5.57;;;;;;;4.48;62.74;98410.97;5021644;28;20397;-84
2020/12/31 04:08:17;;;;;;;12.38;5.88;;;;;;;4.52;62.23;98416.13;5021319;28;20046;-84
2020/12/31 04:10:44;;;;;;;14.05;6.28;;;;;;;4.44;62.61;98411.84;5036493;28;20081;-84
2020/12/31 04:13:10;;;;;;;16.13;6.63;;;;;;;4.69;61.77;98414.34;4965485;28;20050;-83
2020/12/31 04:15:37;;;;;;;12.32;5.93;;;;;;;4.74;61.47;98407.44;5006519;28;20056;-83
2020/12/31 04:18:03;;;;;;;16.02;5.88;;;;;;;4.53;62.47;98410.09;4939211;28;20047;-82
2020/12/31 04:20:30;;;;;;;10.85;5.25;;;;;;;4.48;62.40;98408.38;4944473;28;20043;-85
2020/12/31 04:22:56;;;;;;;16.75;5.28;;;;;;;4.07;63.95;98398.19;5006295;28;20050;-84
2020/12/31 04:25:23;;;;;;;12.85;5.00;;;;;;;3.79;64.53;98407.72;5004412;28;20051;-82
2020/12/31 04:27:49;;;;;;;13.48;5.80;;;;;;;4.07;63.61;98404.22;4989382;28;20039;-84
2020/12/31 04:30:16;;;;;;;13.35;6.10;;;;;;;3.70;62.97;98405.13;5010958;28;20130;-84
2020/12/31 04:32:43;;;;;;;12.98;6.68;;;;;;;4.27;61.60;98409.31;5009459;28;20067;-84
2020/12/31 04:35:09;;;;;;;13.15;6.22;;;;;;;4.50;60.72;98410.13;4950963;28;20055;-84
2020/12/31 04:37:36;;;;;;;14.40;5.90;;;;;;;4.30;60.55;98406.75;4990480;28;20062;-84
2020/12/31 04:40:03;;;;;;;11.57;5.30;;;;;;;3.97;61.48;98412.00;5009886;28;20047;-84
2020/12/31 04:42:42;;;;;;;10.40;5.20;;;;;;;4.34;61.01;98401.56;4980075;28;20395;-82
2020/12/31 04:45:16;;;;;;;8.82;4.88;;;;;;;4.30;61.71;98406.75;5004181;28;20047;-84
2020/12/31 04:47:46;;;;;;;9.38;4.50;;;;;;;4.41;60.87;98401.53;5004602;28;20172;-85
2020/12/31 04:50:16;;;;;;;11.40;4.97;;;;;;;4.33;60.77;98399.81;5006424;28;20081;-84
2020/12/31 04:52:43;;;;;;;22.42;6.50;;;;;;;4.03;61.12;98388.72;4942929;28;20082;-82
2020/12/31 04:55:10;;;;;;;14.50;5.95;;;;;;;4.22;61.22;98385.22;5006852;28;20065;-81
2020/12/31 04:57:38;;;;;;;12.40;6.07;;;;;;;4.15;61.16;98391.28;4994774;28;20044;-82
2020/12/31 05:00:05;;;;;;;11.95;5.40;;;;;;;3.76;62.33;98387.03;4938442;28;20428;-83
2020/12/31 05:02:32;;;;;;;14.65;6.38;;;;;;;3.91;61.93;98387.88;5004495;28;20051;-81
2020/12/31 05:05:01;;;;;;;14.30;6.13;;;;;;;3.81;62.21;98383.59;5002852;28;20414;-84
2020/12/31 05:07:28;;;;;;;12.10;6.65;;;;;;;3.91;62.35;98389.59;4937861;28;20064;-82
2020/12/31 05:10:11;;;;;;;16.40;7.07;;;;;;;4.04;62.11;98390.44;4989630;28;20052;-83
2020/12/31 05:12:38;;;;;;;12.57;6.28;;;;;;;3.50;63.63;98394.84;4990973;28;20132;-83
2020/12/31 05:15:05;;;;;;;14.57;7.13;;;;;;;3.88;62.75;98394.78;5020058;28;20049;-82
2020/12/31 05:17:31;;;;;;;13.35;6.80;;;;;;;3.93;62.54;98393.88;5005446;28;20060;-83
2020/12/31 05:19:58;;;;;;;15.55;6.60;;;;;;;3.83;62.56;98389.63;5019992;28;20045;-83
2020/12/31 05:22:24;;;;;;;13.48;6.40;;;;;;;3.78;63.35;98391.38;5018059;28;20067;-83
2020/12/31 05:24:52;;;;;;;14.52;6.85;;;;;;;3.91;62.81;98393.06;5018227;28;20441;-83
2020/12/31 05:27:25;;;;;;;17.70;6.78;;;;;;;4.14;62.01;98403.31;5019481;28;20042;-84
2020/12/31 05:30:06;;;;;;;12.20;6.88;;;;;;;4.10;61.93;98405.94;5013179;28;20466;-80
2020/12/31 05:32:38;;;;;;;14.93;7.25;;;;;;;4.19;61.65;98401.59;5018014;28;20053;-81
2020/12/31 05:35:16;;;;;;;14.30;6.63;;;;;;;4.24;61.84;98401.56;4997304;28;20049;-83
2020/12/31 05:37:43;;;;;;;15.75;7.90;;;;;;;3.98;62.72;98400.81;5020605;28;20055;-83
2020/12/31 05:40:12;;;;;;;19.27;7.65;;;;;;;4.14;62.22;98395.56;5000267;28;20074;-82
2020/12/31 05:42:41;;;;;;;14.57;7.15;;;;;;;4.17;61.51;98394.72;5009811;28;20388;-83
2020/12/31 05:45:17;;;;;;;18.05;7.80;;;;;;;4.41;61.34;98402.41;5014645;28;20128;-84
2020/12/31 05:47:52;;;;;;;18.77;8.43;;;;;;;4.35;61.28;98413.63;5024948;28;20090;-82
2020/12/31 05:50:22;;;;;;;16.27;7.93;;;;;;;3.78;62.94;98411.16;5013531;28;20068;-84
2020/12/31 05:52:50;;;;;;;17.70;8.02;;;;;;;4.19;61.96;98414.50;5016474;28;20054;-82
2020/12/31 05:55:18;;;;;;;20.63;7.68;;;;;;;4.37;61.41;98406.69;5007407;28;20063;-83
2020/12/31 05:57:55;;;;;;;14.52;7.38;;;;;;;4.32;61.11;98407.56;5030874;28;20839;-83
2020/12/31 06:00:29;;;;;;;16.33;7.07;;;;;;;4.22;61.47;98405.91;5016452;28;20428;-84
2020/12/31 06:02:59;;;;;;;12.73;7.15;;;;;;;4.49;60.88;98399.78;5004675;28;20164;-83
2020/12/31 06:05:27;;;;;;;16.90;6.32;;;;;;;4.26;61.05;98399.88;5017007;28;20049;-84
2020/12/31 06:07:56;;;;;;;14.73;7.10;;;;;;;4.41;60.65;98404.97;5011308;28;20072;-85
2020/12/31 06:10:30;;;;;;;13.57;6.60;;;;;;;4.30;60.24;98406.75;5019668;28;20116;-82
2020/12/31 06:13:07;;;;;;;15.38;6.28;;;;;;;4.07;60.33;98405.94;5028447;28;20400;-84
2020/12/31 06:15:39;;;;;;;11.18;5.68;;;;;;;4.26;59.59;98410.19;4992396;28;20163;-84
2020/12/31 06:18:07;;;;;;;13.73;7.13;;;;;;;4.07;60.34;98405.94;5025048;28;20094;-83
2020/12/31 06:20:38;;;;;;;14.27;6.40;;;;;;;4.06;60.15;98418.00;5023668;28;20128;-83
2020/12/31 06:23:15;;;;;;;15.75;6.22;;;;;;;3.83;60.77;98418.03;5029062;28;20057;-83
2020/12/31 06:25:44;;;;;;;12.30;5.80;;;;;;;3.99;60.79;98412.84;5024987;28;20100;-83
2020/12/31 06:28:18;;;;;;;14.20;5.72;;;;;;;3.85;60.71;98410.28;5020404;28;20060;-83
2020/12/31 06:30:50;;;;;;;13.10;4.85;;;;;;;3.38;62.41;98413.75;5026722;28;20057;-82
2020/12/31 06:33:24;;;;;;;16.13;5.38;;;;;;;3.09;64.78;98410.28;5022427;28;20526;-85
2020/12/31 06:36:10;;;;;;;9.80;4.63;;;;;;;3.13;65.22;98404.25;5029494;28;20041;-83
2020/12/31 06:38:40;;;;;;;15.05;4.60;;;;;;;3.26;64.79;98405.16;5003667;28;20068;-85
2020/12/31 06:41:33;;;;;;;14.32;4.45;;;;;;;3.69;63.55;98409.44;5039034;28;20480;-82
2020/12/31 06:44:10;;;;;;;11.68;4.38;;;;;;;3.23;64.44;98407.69;5015845;28;20067;-83
2020/12/31 06:46:45;;;;;;;10.98;4.40;;;;;;;3.46;63.78;98406.84;5023661;28;20515;-83
2020/12/31 06:49:13;;;;;;;7.40;4.00;;;;;;;3.34;64.30;98406.88;5027532;28;20095;-83
2020/12/31 06:51:40;;;;;;;10.68;4.18;;;;;;;3.55;63.68;98413.72;5025018;28;20053;-81
2020/12/31 06:54:07;;;;;;;11.45;4.13;;;;;;;3.63;63.22;98418.91;4991485;28;20053;-84
2020/12/31 06:56:45;;;;;;;8.68;3.75;;;;;;;3.22;64.19;98413.72;5015769;28;20054;-83
2020/12/31 06:59:30;;;;;;;9.05;3.80;;;;;;;3.19;64.70;98414.59;5016525;28;20126;-83
2020/12/31 07:02:02;;;;;;;10.40;3.80;;;;;;;3.18;64.49;98409.41;5005228;28;20128;-83
2020/12/31 07:04:36;;;;;;;8.27;3.03;;;;;;;3.13;64.43;98414.56;5021372;28;20046;-85
2020/12/31 07:07:18;;;;;;;7.30;3.63;;;;;;;3.45;63.80;98419.78;5019888;28;20046;-83
2020/12/31 07:09:54;;;;;;;7.95;3.25;;;;;;;3.53;63.69;98427.53;5013323;28;20053;-83
2020/12/31 07:12:33;;;;;;;6.60;2.35;;;;;;;3.59;63.50;98432.69;5033657;28;20145;-85
2020/12/31 07:15:01;;;;;;;11.00;3.63;;;;;;;3.33;64.09;98425.78;5017747;28;20354;-83
2020/12/31 07:17:34;;;;;;;12.18;3.05;;;;;;;3.38;63.97;98431.81;5019093;28;20655;-84
2020/12/31 07:20:05;;;;;;;10.07;2.97;;;;;;;3.56;62.73;98433.53;5013398;28;20045;-84
2020/12/31 07:22:33;;;;;;;5.60;2.42;;;;;;;3.76;62.62;98438.69;5022928;28;20502;-84
2020/12/31 07:25:05;;;;;;;7.07;3.42;;;;;;;3.67;62.64;98438.72;5021644;28;20042;-83
2020/12/31 07:27:34;;;;;;;5.70;3.35;;;;;;;3.55;62.96;98438.72;5008025;28;20068;-83
2020/12/31 07:30:07;;;;;;;4.93;2.30;;;;;;;3.41;63.50;98436.97;5005717;28;20140;-83
2020/12/31 07:32:58;;;;;;;4.82;1.98;;;;;;;3.61;62.98;98447.31;5024977;28;20056;-84
2020/12/31 07:35:27;;;;;;;9.60;2.15;;;;;;;3.69;62.62;98432.69;5020900;28;20060;-83
2020/12/31 07:37:55;;;;;;;6.05;2.63;;;;;;;3.75;62.45;98439.56;5018314;28;20111;-82
2020/12/31 07:40:32;;;;;;;9.60;2.05;;;;;;;3.73;62.52;98443.88;5019591;28;20063;-83
2020/12/31 07:42:59;;;;;;;6.22;1.73;;;;;;;3.64;62.82;98452.50;5009030;28;20049;-82
2020/12/31 07:45:26;;;;;;;6.18;1.80;;;;;;;3.92;61.81;98450.75;5023257;28;20053;-82
2020/12/31 07:47:55;;;;;;;6.57;2.03;;;;;;;3.77;62.39;98455.94;5019017;28;20076;-84
2020/12/31 07:50:30;;;;;;;4.53;1.63;;;;;;;3.66;62.39;98462.81;5022355;28;20118;-85
2020/12/31 07:53:00;;;;;;;3.70;1.65;;;;;;;3.67;61.94;98464.53;5007139;28;20441;-84
2020/12/31 07:55:27;;;;;;;5.13;1.80;;;;;;;3.78;62.06;98468.84;5020210;28;20057;-84
2020/12/31 07:57:54;;;;;;;16.48;2.10;;;;;;;3.55;62.78;98469.72;5008189;28;20049;-84
2020/12/31 08:00:21;;;;;;;11.25;1.63;;;;;;;3.61;62.57;98467.97;4997522;28;20049;-84
2020/12/31 08:02:51;;;;;;;4.70;1.77;;;;;;;3.59;62.31;98464.53;5027221;28;20527;-85
2020/12/31 08:05:20;;;;;;;3.88;1.38;;;;;;;3.84;61.83;98463.66;5008036;28;20129;-84
2020/12/31 08:07:55;;;;;;;8.55;3.20;;;;;;;3.89;61.69;98471.41;5016749;28;20087;-84
2020/12/31 08:10:35;;;;;;;13.13;8.88;;;;;;;3.77;62.51;98469.72;5002495;28;20115;-84
2020/12/31 08:13:04;;;;;;;9.52;2.40;;;;;;;3.60;63.14;98471.41;5021796;28;20049;-84
2020/12/31 08:15:32;;;;;;;6.82;2.50;;;;;;;3.58;63.82;98472.28;5004525;28;20069;-81
2020/12/31 08:18:04;;;;;;;4.10;2.05;;;;;;;3.31;64.45;98478.28;5029488;28;20050;-84
2020/12/31 08:20:37;;;;;;;8.43;2.92;;;;;;;3.87;63.13;98481.75;5022362;28;20072;-84
2020/12/31 08:23:13;;;;;;;9.23;3.20;;;;;;;3.58;63.88;98480.88;5007211;28;20071;-83
2020/12/31 08:25:42;;;;;;;8.07;3.58;;;;;;;3.58;64.31;98483.47;5022499;28;20048;-83
2020/12/31 08:28:10;;;;;;;12.07;3.67;;;;;;;3.78;63.84;98471.44;5020457;28;20064;-83
2020/12/31 08:30:37;;;;;;;13.52;4.85;;;;;;;3.60;64.44;98473.16;5020494;28;20054;-83
2020/12/31 08:33:08;;;;;;;11.18;5.32;;;;;;;3.76;63.94;98467.13;5021308;28;20069;-83
2020/12/31 08:35:39;;;;;;;12.10;5.60;;;;;;;3.76;63.73;98462.81;5022893;28;20057;-82
2020/12/31 08:38:12;;;;;;;13.57;6.45;;;;;;;3.97;63.26;98459.38;4996015;28;20049;-84
2020/12/31 08:40:48;;;;;;;14.85;7.55;;;;;;;3.80;64.17;98459.34;5004680;28;20076;-84
2020/12/31 08:43:22;;;;;;;13.95;7.00;;;;;;;3.78;64.25;98468.00;5014996;28;20111;-84
2020/12/31 08:45:57;;;;;;;14.75;7.72;;;;;;;3.96;63.64;98470.56;5022685;28;20048;-83
2020/12/31 08:48:25;;;;;;;17.80;7.43;;;;;;;4.02;63.15;98482.63;5018305;28;20053;-83
2020/12/31 08:51:09;;;;;;;14.45;6.72;;;;;;;3.84;63.49;98473.13;5025465;28;20049;-84
2020/12/31 08:54:00;;;;;;;15.95;7.95;;;;;;;3.67;64.24;98485.19;5011710;28;20046;-82
2020/12/31 08:56:30;;;;;;;16.45;7.68;;;;;;;3.86;64.19;98490.38;5016566;28;20049;-82
2020/12/31 08:59:14;;;;;;;17.85;8.40;;;;;;;4.13;63.18;98486.88;5033886;28;20128;-80
2020/12/31 09:01:46;;;;;;;20.10;8.45;;;;;;;4.29;62.97;98491.19;5029096;28;20492;-81
2020/12/31 09:04:18;;;;;;;16.40;8.07;;;;;;;4.16;63.24;98486.91;5037083;28;20049;-84
2020/12/31 09:06:47;;;;;;;18.55;7.82;;;;;;;4.93;60.56;98497.91;5026358;28;20127;-84
2020/12/31 09:09:19;;;;;;;19.02;8.27;;;;;;;5.03;60.03;98497.84;5039238;28;20033;-82
2020/12/31 09:12:06;;;;;;;14.80;7.65;;;;;;;5.26;59.35;98493.41;5012422;28;20059;-85
2020/12/31 09:14:38;;;;;;;14.50;7.93;;;;;;;5.39;59.40;98495.91;4996053;28;20150;-82
2020/12/31 09:17:25;;;;;;;14.63;7.13;;;;;;;6.50;59.08;98493.31;5002158;28;20062;-80
2020/12/31 09:19:55;;;;;;;16.45;8.00;;;;;;;8.08;57.16;98493.75;4996667;28;20114;-80
2020/12/31 09:22:24;;;;;;;11.48;7.20;;;;;;;9.95;51.19;98502.09;5007243;28;20046;-80
2020/12/31 09:24:52;;;;;;;11.20;5.72;;;;;;;12.12;45.24;98498.59;4991113;28;20111;-81
2020/12/31 09:27:24;;;;;;;12.00;6.32;;;;;;;13.49;39.65;98491.97;5008374;28;20493;-82
2020/12/31 09:30:01;;;;;;;9.00;5.38;;;;;;;14.86;36.61;98499.50;4996468;28;20047;-83
2020/12/31 09:32:28;;;;;;;7.35;5.10;;;;;;;16.37;33.96;98507.31;5001930;28;20066;-82
2020/12/31 09:35:02;;;;;;;8.32;5.15;;;;;;;17.12;29.85;98509.59;5003297;28;21264;-86
2020/12/31 09:37:28;;;;;;;8.35;5.00;;;;;;;17.13;29.83;98510.47;4993969;28;20052;-85
2020/12/31 09:39:55;;;;;;;7.93;4.63;;;;;;;17.42;28.62;98512.41;5004157;28;20103;-85
2020/12/31 09:42:23;;;;;;;7.28;4.55;;;;;;;18.55;28.01;98513.13;4993015;28;20059;-83
2020/12/31 09:44:50;;;;;;;7.28;4.05;;;;;;;19.78;27.07;98520.63;4950612;28;20055;-84
2020/12/31 09:47:19;;;;;;;7.72;4.55;;;;;;;20.75;25.75;98524.88;5006199;28;20098;-85
2020/12/31 09:49:53;;;;;;;7.78;5.75;;;;;;;21.48;24.32;98525.16;5014062;28;20045;-86
2020/12/31 09:52:25;;;;;;;7.38;5.13;;;;;;;22.52;23.09;98533.50;4978513;28;20041;-83
2020/12/31 09:54:59;;;;;;;7.95;5.03;;;;;;;22.79;22.77;98538.59;5020327;28;20058;-83
2020/12/31 09:57:27;;;;;;;6.60;4.95;;;;;;;22.41;22.85;98530.75;4998363;28;20063;-82
2020/12/31 09:59:53;;;;;;;8.40;4.60;;;;;;;21.97;23.19;98531.34;5019547;28;20048;-83
2020/12/31 10:02:20;;;;;;;7.93;4.80;;;;;;;21.03;23.30;98531.81;5023551;28;20051;-83
2020/12/31 10:04:47;;;;;;;5.22;3.50;;;;;;;16.68;30.29;98526.91;5019436;28;20076;-82
2020/12/31 10:07:17;;;;;;;5.93;3.38;;;;;;;17.29;29.69;98530.72;5011862;28;20457;-82
2020/12/31 10:09:43;;;;;;;5.32;3.47;;;;;;;17.50;29.68;98533.16;5000627;28;20130;-81
2020/12/31 10:12:14;;;;;;;5.50;3.47;;;;;;;17.40;29.48;98524.88;5001500;28;20504;-80
2020/12/31 10:14:43;;;;;;;6.85;3.53;;;;;;;14.99;34.93;98529.59;5026142;28;20091;-80
2020/12/31 10:17:10;;;;;;;4.57;3.17;;;;;;;16.07;33.25;98535.13;5026218;28;20519;-81
2020/12/31 10:19:41;;;;;;;6.95;3.65;;;;;;;15.62;33.61;98543.44;5025099;28;20045;-82
2020/12/31 10:22:08;;;;;;;6.43;3.60;;;;;;;16.52;33.15;98543.44;5002408;28;20069;-83
2020/12/31 10:24:36;;;;;;;7.25;4.00;;;;;;;16.84;31.22;98552.41;5027493;28;20479;-82
2020/12/31 10:27:03;;;;;;;8.63;4.00;;;;;;;15.36;32.92;98546.34;5019164;28;20500;-82
2020/12/31 10:29:30;;;;;;;4.47;3.30;;;;;;;15.76;33.30;98546.28;5017469;28;20493;-82
2020/12/31 10:31:58;;;;;;;5.88;3.42;;;;;;;15.17;34.18;98541.06;5019583;28;20041;-82
2020/12/31 10:34:25;;;;;;;7.03;3.50;;;;;;;15.17;35.29;98531.41;5027645;28;20099;-82
2020/12/31 10:36:53;;;;;;;5.72;3.53;;;;;;;16.76;32.95;98545.81;5013716;28;20482;-83
2020/12/31 10:39:20;;;;;;;9.40;5.32;;;;;;;16.43;32.06;98543.06;5032382;28;20034;-83
2020/12/31 10:41:48;;;;;;;7.03;3.55;;;;;;;15.78;33.82;98539.16;5043146;28;20052;-83
2020/12/31 10:44:16;;;;;;;5.03;3.17;;;;;;;16.08;33.79;98544.75;5034171;28;20137;-82
2020/12/31 10:46:43;;;;;;;6.20;3.70;;;;;;;14.94;35.93;98538.59;5021649;28;20123;-84
2020/12/31 10:49:10;;;;;;;5.63;3.65;;;;;;;15.90;35.02;98538.59;5002417;28;20153;-83
2020/12/31 10:51:39;;;;;;;5.32;3.42;;;;;;;16.28;34.17;98539.38;5029498;28;20121;-83
2020/12/31 10:54:06;;;;;;;5.22;3.50;;;;;;;18.41;31.59;98546.56;5028516;28;20048;-83
2020/12/31 10:56:34;;;;;;;6.55;3.78;;;;;;;16.89;32.20;98539.84;5026196;28;20050;-84
2020/12/31 10:59:00;;;;;;;5.22;3.30;;;;;;;18.02;28.96;98542.59;5022022;28;20139;-83
2020/12/31 11:01:27;;;;;;;5.55;3.53;;;;;;;17.98;30.61;98538.41;4990220;28;20892;-83
2020/12/31 11:03:54;;;;;;;7.70;3.33;;;;;;;17.61;30.11;98541.34;5023803;28;20049;-82
2020/12/31 11:06:25;;;;;;;4.35;2.85;;;;;;;16.67;33.40;98549.78;5020755;28;20409;-83
2020/12/31 11:08:53;;;;;;;4.15;2.47;;;;;;;17.06;31.78;98549.53;5002519;28;20505;-82
2020/12/31 11:11:26;;;;;;;4.75;3.15;;;;;;;18.21;30.85;98548.53;5023299;28;20045;-83
2020/12/31 11:13:54;;;;;;;5.40;2.47;;;;;;;16.71;32.65;98547.84;5026486;28;20065;-83
2020/12/31 11:16:21;;;;;;;4.85;2.72;;;;;;;18.09;29.79;98545.72;5022151;28;20124;-82
2020/12/31 11:18:48;;;;;;;4.30;2.63;;;;;;;20.82;27.27;98550.88;5019318;28;20054;-83
2020/12/31 11:21:18;;;;;;;3.97;2.42;;;;;;;20.53;26.95;98549.31;5002173;28;20616;-84
2020/12/31 11:23:47;;;;;;;3.55;2.67;;;;;;;20.12;27.54;98548.47;5010741;28;20148;-83
2020/12/31 11:26:21;;;;;;;3.42;2.30;;;;;;;19.59;26.85;98552.72;5032301;28;20041;-83
2020/12/31 11:28:49;;;;;;;3.45;2.10;;;;;;;18.39;28.80;98548.44;5026137;28;20052;-83
2020/12/31 11:31:27;;;;;;;3.30;2.28;;;;;;;16.83;31.31;98556.00;5028457;28;20052;-83
2020/12/31 11:33:55;;;;;;;4.75;2.60;;;;;;;16.28;32.56;98552.56;4995368;28;20490;-81
2020/12/31 11:36:24;;;;;;;4.40;2.20;;;;;;;15.25;33.90;98547.69;5025542;28;20519;-82
2020/12/31 11:38:52;;;;;;;3.92;2.25;;;;;;;15.61;33.54;98558.38;5025713;28;20136;-80
2020/12/31 11:41:19;;;;;;;4.03;2.58;;;;;;;16.40;33.22;98557.22;5006093;28;20415;-83
2020/12/31 11:43:47;;;;;;;8.15;2.17;;;;;;;16.56;31.23;98557.31;5022430;28;20049;-80
2020/12/31 11:46:14;;;;;;;3.08;2.20;;;;;;;16.46;31.84;98551.66;5026015;28;20427;-80